createdAt,value
2022-09-16T00:00:29.893Z,2.40
2022-09-16T00:02:57.173Z,2.30
2022-09-16T00:05:24.075Z,2.33
2022-09-16T00:07:50.755Z,2.47
2022-09-16T00:10:18.364Z,2.33
2022-09-16T00:12:45.052Z,2.10
2022-09-16T00:15:12.184Z,2.60
2022-09-16T00:17:38.903Z,2.40
2022-09-16T00:20:09.376Z,2.30
2022-09-16T00:22:35.996Z,2.10
2022-09-16T00:25:02.716Z,2.23
2022-09-16T00:27:29.409Z,2.40
2022-09-16T00:29:56.045Z,2.70
2022-09-16T00:32:25.736Z,2.37
2022-09-16T00:34:52.825Z,1.83
2022-09-16T00:37:19.684Z,2.23
2022-09-16T00:39:49.843Z,2.50
2022-09-16T00:42:18.082Z,2.03
2022-09-16T00:45:02.210Z,2.10
2022-09-16T00:47:41.977Z,2.03
2022-09-16T00:50:12.789Z,2.20
2022-09-16T00:52:41.521Z,2.23
2022-09-16T00:55:12.115Z,2.20
2022-09-16T00:57:41.760Z,2.50
2022-09-16T01:00:11.838Z,2.00
2022-09-16T01:02:38.895Z,2.43
2022-09-16T01:05:12.319Z,1.67
2022-09-16T01:07:48.145Z,1.63
2022-09-16T01:10:18.097Z,1.53
2022-09-16T01:12:49.946Z,1.97
2022-09-16T01:15:18.039Z,2.37
2022-09-16T01:18:21.578Z,1.83
2022-09-16T01:21:13.717Z,2.20
2022-09-16T01:23:58.960Z,2.20
2022-09-16T01:26:50.958Z,1.87
2022-09-16T01:29:58.537Z,2.43
2022-09-16T01:32:49.900Z,2.00
2022-09-16T01:35:25.302Z,2.07
2022-09-16T01:38:07.159Z,1.80
2022-09-16T01:41:09.219Z,2.27
2022-09-16T01:43:41.451Z,2.13
2022-09-16T01:46:19.828Z,1.87
2022-09-16T01:48:58.133Z,2.00
2022-09-16T01:51:29.547Z,2.37
2022-09-16T01:54:08.361Z,2.20
2022-09-16T01:57:08.419Z,1.80
2022-09-16T01:59:42.961Z,1.93
2022-09-16T02:02:29.515Z,1.83
2022-09-16T02:05:00.020Z,2.33
2022-09-16T02:07:33.294Z,2.60
2022-09-16T02:10:08.928Z,1.70
2022-09-16T02:12:39.899Z,2.20
2022-09-16T02:15:11.018Z,1.77
2022-09-16T02:17:44.855Z,2.00
2022-09-16T02:20:24.723Z,2.00
2022-09-16T02:23:12.432Z,2.40
2022-09-16T02:25:40.442Z,2.30
2022-09-16T02:28:13.181Z,1.67
2022-09-16T02:30:47.998Z,2.13
2022-09-16T02:33:17.861Z,1.97
2022-09-16T02:35:48.563Z,2.30
2022-09-16T02:38:23.408Z,2.10
2022-09-16T02:40:57.288Z,2.10
2022-09-16T02:43:25.464Z,2.20
2022-09-16T02:46:23.232Z,1.80
2022-09-16T02:49:22.745Z,1.73
2022-09-16T02:52:14.599Z,2.03
2022-09-16T02:54:56.213Z,2.13
2022-09-16T02:57:23.058Z,2.00
2022-09-16T02:59:50.656Z,2.00
2022-09-16T03:02:17.571Z,2.30
2022-09-16T03:04:45.303Z,2.33
2022-09-16T03:07:13.692Z,1.87
2022-09-16T03:09:44.105Z,2.33
2022-09-16T03:12:36.579Z,1.83
2022-09-16T03:15:34.721Z,2.10
2022-09-16T03:18:27.906Z,2.53
2022-09-16T03:21:07.257Z,1.83
2022-09-16T03:23:45.577Z,1.93
2022-09-16T03:26:43.221Z,2.20
2022-09-16T03:29:22.807Z,2.17
2022-09-16T03:31:49.365Z,2.43
2022-09-16T03:34:30.299Z,2.10
2022-09-16T03:37:02.235Z,2.00
2022-09-16T03:39:29.730Z,2.50
2022-09-16T03:42:01.632Z,2.13
2022-09-16T03:44:32.842Z,2.17
2022-09-16T03:46:59.561Z,2.00
2022-09-16T03:49:26.220Z,2.57
2022-09-16T03:51:52.842Z,1.70
2022-09-16T03:54:19.416Z,2.07
2022-09-16T03:56:46.036Z,2.50
2022-09-16T03:59:12.639Z,2.37
2022-09-16T04:01:39.483Z,2.77
2022-09-16T04:04:06.218Z,3.03
2022-09-16T04:06:32.907Z,2.30
2022-09-16T04:09:02.281Z,2.60
2022-09-16T04:11:31.715Z,2.33
2022-09-16T04:13:59.158Z,2.00
2022-09-16T04:16:26.032Z,2.60
2022-09-16T04:18:52.676Z,2.57
2022-09-16T04:21:19.420Z,2.47
2022-09-16T04:23:46.077Z,2.73
2022-09-16T04:26:12.685Z,2.70
2022-09-16T04:28:39.322Z,2.30
2022-09-16T04:31:12.168Z,2.83
2022-09-16T04:33:39.268Z,2.37
2022-09-16T04:36:14.543Z,2.40
2022-09-16T04:38:43.019Z,2.33
2022-09-16T04:41:18.930Z,2.70
2022-09-16T04:43:46.174Z,2.50
2022-09-16T04:46:13.645Z,2.80
2022-09-16T04:48:43.207Z,2.53
2022-09-16T04:51:12.195Z,2.83
2022-09-16T04:53:41.578Z,3.63
2022-09-16T04:56:14.728Z,2.53
2022-09-16T04:58:50.204Z,2.67
2022-09-16T05:01:25.816Z,3.10
2022-09-16T05:03:55.551Z,2.70
2022-09-16T05:06:24.467Z,2.60
2022-09-16T05:08:53.720Z,2.83
2022-09-16T05:11:23.228Z,2.10
2022-09-16T05:13:49.955Z,2.67
2022-09-16T05:16:21.797Z,2.60
2022-09-16T05:18:51.045Z,2.60
2022-09-16T05:21:20.318Z,2.73
2022-09-16T05:23:48.160Z,2.77
2022-09-16T05:26:20.327Z,2.77
2022-09-16T05:28:47.452Z,2.57
2022-09-16T05:31:26.625Z,1.90
2022-09-16T05:34:00.727Z,2.70
2022-09-16T05:36:30.176Z,3.53
2022-09-16T05:39:21.609Z,3.03
2022-09-16T05:41:44.841Z,3.33
2022-09-16T05:44:11.532Z,2.93
2022-09-16T05:46:40.654Z,2.90
2022-09-16T05:49:08.563Z,2.90
2022-09-16T05:51:38.059Z,3.03
2022-09-16T05:54:05.132Z,2.20
2022-09-16T05:56:31.712Z,2.20
2022-09-16T05:59:00.509Z,3.10
2022-09-16T06:01:35.487Z,2.40
2022-09-16T06:04:04.589Z,2.60
2022-09-16T06:06:36.836Z,1.93
2022-09-16T06:09:11.998Z,2.10
2022-09-16T06:11:41.230Z,2.00
2022-09-16T06:14:08.868Z,2.03
2022-09-16T06:16:36.607Z,2.60
2022-09-16T06:19:07.149Z,2.40
2022-09-16T06:21:33.760Z,2.27
2022-09-16T06:24:00.452Z,2.40
2022-09-16T06:26:27.703Z,1.90
2022-09-16T06:28:57.635Z,2.27
2022-09-16T06:31:26.478Z,2.53
2022-09-16T06:33:56.194Z,2.67
2022-09-16T06:36:26.579Z,2.70
2022-09-16T06:38:53.301Z,2.20
2022-09-16T06:41:21.446Z,2.53
2022-09-16T06:43:49.018Z,2.80
2022-09-16T06:46:18.624Z,2.30
2022-09-16T06:48:48.337Z,2.13
2022-09-16T06:51:23.004Z,2.17
2022-09-16T06:53:51.424Z,2.20
2022-09-16T06:56:20.495Z,2.07
2022-09-16T06:58:49.340Z,1.97
2022-09-16T07:01:17.455Z,2.40
2022-09-16T07:03:46.300Z,2.07
2022-09-16T07:06:14.484Z,2.50
2022-09-16T07:08:42.341Z,2.13
2022-09-16T07:11:12.600Z,2.27
2022-09-16T07:13:40.301Z,2.50
2022-09-16T07:16:13.944Z,1.90
2022-09-16T07:18:41.813Z,2.20
2022-09-16T07:21:17.324Z,2.90
2022-09-16T07:23:45.473Z,2.70
2022-09-16T07:26:17.867Z,2.43
2022-09-16T07:28:47.125Z,2.13
2022-09-16T07:31:25.676Z,2.27
2022-09-16T07:33:53.892Z,2.47
2022-09-16T07:36:23.983Z,2.27
2022-09-16T07:38:51.523Z,3.13
2022-09-16T07:41:23.421Z,2.40
2022-09-16T07:43:50.800Z,2.40
2022-09-16T07:46:19.040Z,2.00
2022-09-16T07:48:47.931Z,2.00
2022-09-16T07:51:23.421Z,2.60
2022-09-16T07:53:55.095Z,2.80
2022-09-16T07:56:25.471Z,2.60
2022-09-16T07:58:54.157Z,2.60
2022-09-16T08:01:21.359Z,3.20
2022-09-16T08:03:48.656Z,2.67
2022-09-16T08:06:17.999Z,2.57
2022-09-16T08:08:45.463Z,2.50
2022-09-16T08:11:14.405Z,2.50
2022-09-16T08:13:43.008Z,2.80
2022-09-16T08:16:13.437Z,2.30
2022-09-16T08:18:40.697Z,2.90
2022-09-16T08:21:08.789Z,2.33
2022-09-16T08:23:36.476Z,3.40
2022-09-16T08:26:04.297Z,2.13
2022-09-16T08:28:40.033Z,2.43
2022-09-16T08:31:19.955Z,2.63
2022-09-16T08:33:47.245Z,2.73
2022-09-16T08:36:21.051Z,2.67
2022-09-16T08:38:49.606Z,2.60
2022-09-16T08:41:46.692Z,2.33
2022-09-16T08:45:11.808Z,2.40
2022-09-16T08:48:08.085Z,2.67
2022-09-16T08:50:38.302Z,2.63
2022-09-16T08:53:14.785Z,2.67
2022-09-16T08:55:46.834Z,2.33
2022-09-16T08:58:17.737Z,2.93
2022-09-16T09:00:47.389Z,3.00
2022-09-16T09:03:22.015Z,2.80
2022-09-16T09:05:54.524Z,2.93
2022-09-16T09:08:38.572Z,2.43
2022-09-16T09:11:17.223Z,3.17
2022-09-16T09:13:53.124Z,3.47
2022-09-16T09:16:48.832Z,2.80
2022-09-16T09:19:36.728Z,3.10
2022-09-16T09:22:09.798Z,3.03
2022-09-16T09:24:51.514Z,2.40
2022-09-16T09:27:39.097Z,2.97
2022-09-16T09:30:14.533Z,2.93
2022-09-16T09:32:59.364Z,2.73
2022-09-16T09:35:47.282Z,3.60
2022-09-16T09:38:31.859Z,2.40
2022-09-16T09:41:05.822Z,2.40
2022-09-16T09:43:41.442Z,2.13
2022-09-16T09:46:10.526Z,2.30
2022-09-16T09:48:41.883Z,2.60
2022-09-16T09:51:21.099Z,2.73
2022-09-16T09:53:53.612Z,2.00
2022-09-16T09:56:35.373Z,2.83
2022-09-16T09:59:44.919Z,2.63
2022-09-16T10:02:20.729Z,2.70
2022-09-16T10:04:48.205Z,2.40
2022-09-16T10:07:18.478Z,2.87
2022-09-16T10:09:58.024Z,2.97
2022-09-16T10:12:43.047Z,2.33
2022-09-16T10:15:34.303Z,3.00
2022-09-16T10:18:03.048Z,2.70
2022-09-16T10:20:34.997Z,2.37
2022-09-16T10:23:27.635Z,2.60
2022-09-16T10:26:20.707Z,2.70
2022-09-16T10:28:57.262Z,2.43
2022-09-16T10:31:29.316Z,1.83
2022-09-16T10:34:00.851Z,2.10
2022-09-16T10:36:32.782Z,2.03
2022-09-16T10:39:04.889Z,1.60
2022-09-16T10:41:42.410Z,1.73
2022-09-16T10:44:24.120Z,1.67
2022-09-16T10:47:02.853Z,1.50
2022-09-16T10:49:44.728Z,1.80
2022-09-16T10:52:21.676Z,1.33
2022-09-16T10:54:49.229Z,1.27
2022-09-16T10:57:35.238Z,1.20
2022-09-16T11:00:21.768Z,1.40
2022-09-16T11:03:06.484Z,1.47
2022-09-16T11:05:54.699Z,1.07
2022-09-16T11:08:24.416Z,1.33
2022-09-16T11:11:11.905Z,1.30
2022-09-16T11:13:38.699Z,1.10
2022-09-16T11:16:13.618Z,1.40
2022-09-16T11:19:00.483Z,1.13
2022-09-16T11:21:26.999Z,1.20
2022-09-16T11:24:10.684Z,0.87
2022-09-16T11:27:05.298Z,1.43
2022-09-16T11:29:42.760Z,1.13
2022-09-16T11:32:25.205Z,1.03
2022-09-16T11:35:17.744Z,1.07
2022-09-16T11:38:16.443Z,0.80
2022-09-16T11:40:45.911Z,0.90
2022-09-16T11:43:51.015Z,1.20
2022-09-16T11:46:36.485Z,0.80
2022-09-16T11:49:08.954Z,0.83
2022-09-16T11:51:47.806Z,0.80
2022-09-16T11:55:05.123Z,1.00
2022-09-16T11:57:37.256Z,0.93
2022-09-16T12:00:16.880Z,1.13
2022-09-16T12:03:10.613Z,0.80
2022-09-16T12:05:42.978Z,0.90
2022-09-16T12:08:44.608Z,0.90
2022-09-16T12:11:24.031Z,0.77
2022-09-16T12:14:05.453Z,1.00
2022-09-16T12:16:47.058Z,1.00
2022-09-16T12:19:22.226Z,0.70
2022-09-16T12:21:57.825Z,1.00
2022-09-16T12:24:31.026Z,1.00
2022-09-16T12:27:31.345Z,1.13
2022-09-16T12:30:02.810Z,1.10
2022-09-16T12:32:43.739Z,1.37
2022-09-16T12:35:36.720Z,1.80
2022-09-16T12:38:03.788Z,1.50
2022-09-16T12:40:50.592Z,1.47
2022-09-16T12:43:35.449Z,1.33
2022-09-16T12:46:08.138Z,1.70
2022-09-16T12:48:55.219Z,1.27
2022-09-16T12:51:50.366Z,1.27
2022-09-16T12:54:51.222Z,1.77
2022-09-16T12:57:55.753Z,3.03
2022-09-16T13:00:26.064Z,2.67
2022-09-16T13:02:57.667Z,1.30
2022-09-16T13:05:36.773Z,1.50
2022-09-16T13:08:18.997Z,1.50
2022-09-16T13:13:37.424Z,1.40
2022-09-16T13:16:06.681Z,1.57
2022-09-16T13:18:50.391Z,1.50
2022-09-16T13:21:28.057Z,1.87
2022-09-16T13:24:04.054Z,1.03
2022-09-16T13:26:42.217Z,1.20
2022-09-16T13:29:47.167Z,1.30
2022-09-16T13:32:49.010Z,1.47
2022-09-16T13:35:18.647Z,1.27
2022-09-16T13:37:46.773Z,0.90
2022-09-16T13:40:25.124Z,1.17
2022-09-16T13:43:03.518Z,1.00
2022-09-16T13:45:34.054Z,1.50
2022-09-16T13:48:23.341Z,1.30
2022-09-16T13:51:01.383Z,1.50
2022-09-16T13:53:34.728Z,1.40
2022-09-16T13:56:46.887Z,1.30
2022-09-16T13:59:20.480Z,1.80
2022-09-16T14:02:27.556Z,2.13
2022-09-16T14:05:04.391Z,1.70
2022-09-16T14:08:05.026Z,1.50
2022-09-16T14:10:56.800Z,1.20
2022-09-16T14:13:25.186Z,1.60
2022-09-16T14:15:56.429Z,1.37
2022-09-16T14:18:29.767Z,1.20
2022-09-16T14:21:03.692Z,1.70
2022-09-16T14:23:32.645Z,2.00
2022-09-16T14:26:34.935Z,1.50
2022-09-16T14:29:03.670Z,1.50
2022-09-16T14:31:32.584Z,1.77
2022-09-16T14:34:07.567Z,1.73
2022-09-16T14:36:37.956Z,1.50
2022-09-16T14:39:12.078Z,1.17
2022-09-16T14:41:46.136Z,1.70
2022-09-16T14:44:22.687Z,2.13
2022-09-16T14:47:28.369Z,1.90
2022-09-16T14:50:12.427Z,2.20
2022-09-16T14:52:39.209Z,1.83
2022-09-16T14:55:20.455Z,1.70
2022-09-16T14:57:47.405Z,2.37
2022-09-16T15:00:17.362Z,1.83
2022-09-16T15:02:49.991Z,2.23
2022-09-16T15:05:23.044Z,1.70
2022-09-16T15:08:12.604Z,2.00
2022-09-16T15:10:53.208Z,1.70
2022-09-16T15:13:24.404Z,1.80
2022-09-16T15:15:53.575Z,1.63
2022-09-16T15:18:28.771Z,1.83
2022-09-16T15:21:19.800Z,1.97
2022-09-16T15:23:52.214Z,2.07
2022-09-16T15:26:29.437Z,1.83
2022-09-16T15:28:59.117Z,1.23
2022-09-16T15:31:37.061Z,1.50
2022-09-16T15:34:22.927Z,0.90
2022-09-16T15:36:54.859Z,1.30
2022-09-16T15:39:32.987Z,1.40
2022-09-16T15:42:17.285Z,1.50
2022-09-16T15:44:50.003Z,1.10
2022-09-16T15:47:21.264Z,1.37
2022-09-16T15:49:53.023Z,1.40
2022-09-16T15:52:19.775Z,1.87
2022-09-16T15:54:56.179Z,1.77
2022-09-16T15:57:41.047Z,1.40
2022-09-16T16:00:16.274Z,1.60
2022-09-16T16:02:53.478Z,1.40
2022-09-16T16:05:30.178Z,1.40
2022-09-16T16:08:09.646Z,1.90
2022-09-16T16:10:36.744Z,1.50
2022-09-16T16:13:06.617Z,1.70
2022-09-16T16:15:39.430Z,1.53
2022-09-16T16:18:08.772Z,1.97
2022-09-16T16:20:37.248Z,2.03
2022-09-16T16:23:04.002Z,1.60
2022-09-16T16:25:32.356Z,1.63
2022-09-16T16:27:59.065Z,2.03
2022-09-16T16:30:25.739Z,1.57
2022-09-16T16:32:52.403Z,2.00
2022-09-16T16:35:18.967Z,2.10
2022-09-16T16:37:47.261Z,2.23
2022-09-16T16:40:15.370Z,1.97
2022-09-16T16:42:43.739Z,2.10
2022-09-16T16:45:14.157Z,2.07
2022-09-16T16:47:41.248Z,2.10
2022-09-16T16:50:08.211Z,2.27
2022-09-16T16:52:34.847Z,2.07
2022-09-16T16:55:01.671Z,4.00
2022-09-16T16:57:28.252Z,3.17
2022-09-16T16:59:54.884Z,4.57
2022-09-16T17:02:21.470Z,2.53
2022-09-16T17:04:48.173Z,1.90
2022-09-16T17:07:25.697Z,3.10
2022-09-16T17:09:54.161Z,2.07
2022-09-16T17:12:20.968Z,2.00
2022-09-16T17:14:47.784Z,2.90
2022-09-16T17:17:14.419Z,2.53
2022-09-16T17:19:41.025Z,3.17
2022-09-16T17:22:07.762Z,2.50
2022-09-16T17:24:34.835Z,2.67
2022-09-16T17:27:02.220Z,2.50
2022-09-16T17:29:29.133Z,2.33
2022-09-16T17:31:57.232Z,2.97
2022-09-16T17:34:26.396Z,2.70
2022-09-16T17:36:53.250Z,2.40
2022-09-16T17:39:22.822Z,2.77
2022-09-16T17:41:51.104Z,2.93
2022-09-16T17:44:19.008Z,3.40
2022-09-16T17:46:47.166Z,3.07
2022-09-16T17:49:20.259Z,3.23
2022-09-16T17:51:47.927Z,3.00
2022-09-16T17:54:15.182Z,2.80
2022-09-16T17:56:45.176Z,2.57
2022-09-16T17:59:13.608Z,2.70
2022-09-16T18:01:41.107Z,2.97
2022-09-16T18:04:08.227Z,2.60
2022-09-16T18:06:40.942Z,2.63
2022-09-16T18:09:07.707Z,2.83
2022-09-16T18:11:36.392Z,2.57
2022-09-16T18:14:05.119Z,2.43
2022-09-16T18:16:32.802Z,2.90
2022-09-16T18:19:02.195Z,2.50
2022-09-16T18:21:29.882Z,2.77
2022-09-16T18:23:59.358Z,2.90
2022-09-16T18:26:27.412Z,2.87
2022-09-16T18:29:12.581Z,2.57
2022-09-16T18:31:41.565Z,2.60
2022-09-16T18:34:08.575Z,2.27
2022-09-16T18:36:37.722Z,2.23
2022-09-16T18:39:06.051Z,2.37
2022-09-16T18:41:38.271Z,2.23
2022-09-16T18:44:16.308Z,2.10
2022-09-16T18:46:43.680Z,1.90
2022-09-16T18:49:12.784Z,2.07
2022-09-16T18:51:50.522Z,2.30
2022-09-16T18:54:25.971Z,2.10
2022-09-16T18:56:55.843Z,2.20
2022-09-16T18:59:24.555Z,2.73
2022-09-16T19:01:53.889Z,2.10
2022-09-16T19:04:27.886Z,1.70
2022-09-16T19:06:57.357Z,2.30
2022-09-16T19:09:24.375Z,2.07
2022-09-16T19:11:53.152Z,1.90
2022-09-16T19:14:22.452Z,1.93
2022-09-16T19:16:49.232Z,1.93
2022-09-16T19:19:16.130Z,1.50
2022-09-16T19:21:43.669Z,2.60
2022-09-16T19:24:14.358Z,2.00
2022-09-16T19:26:42.224Z,2.00
2022-09-16T19:29:09.829Z,1.73
2022-09-16T19:31:39.371Z,2.00
2022-09-16T19:34:06.864Z,1.87
2022-09-16T19:36:35.381Z,2.10
2022-09-16T19:39:02.809Z,2.10
2022-09-16T19:41:31.364Z,2.47
2022-09-16T19:44:01.146Z,2.00
2022-09-16T19:46:28.971Z,2.77
2022-09-16T19:48:55.871Z,2.20
2022-09-16T19:51:23.877Z,2.10
2022-09-16T19:53:52.426Z,1.50
2022-09-16T19:56:22.179Z,1.73
2022-09-16T19:58:50.368Z,2.30
2022-09-16T20:01:22.660Z,2.20
2022-09-16T20:03:52.479Z,2.20
2022-09-16T20:06:39.967Z,1.87
2022-09-16T20:09:11.541Z,2.10
2022-09-16T20:11:40.516Z,1.53
2022-09-16T20:14:13.575Z,2.23
2022-09-16T20:16:40.683Z,2.07
2022-09-16T20:19:13.588Z,1.93
2022-09-16T20:21:40.999Z,2.47
2022-09-16T20:24:13.697Z,2.27
2022-09-16T20:26:40.332Z,2.50
2022-09-16T20:29:07.096Z,2.50
2022-09-16T20:31:35.911Z,2.13
2022-09-16T20:34:03.623Z,2.47
2022-09-16T20:36:31.785Z,2.30
2022-09-16T20:38:59.901Z,2.70
2022-09-16T20:41:30.015Z,2.43
2022-09-16T20:43:57.323Z,2.33
2022-09-16T20:46:29.826Z,2.40
2022-09-16T20:48:58.610Z,2.87
2022-09-16T20:51:27.582Z,2.27
2022-09-16T20:54:07.697Z,2.33
2022-09-16T20:56:39.751Z,2.37
2022-09-16T20:59:13.216Z,2.13
2022-09-16T21:01:41.687Z,1.77
2022-09-16T21:04:15.641Z,2.37
2022-09-16T21:06:42.661Z,2.50
2022-09-16T21:09:12.155Z,2.23
2022-09-16T21:11:42.742Z,3.33
2022-09-16T21:14:09.368Z,2.30
2022-09-16T21:16:37.873Z,2.50
2022-09-16T21:19:09.307Z,2.10
2022-09-16T21:21:38.659Z,2.10
2022-09-16T21:24:07.288Z,2.20
2022-09-16T21:26:35.862Z,1.70
2022-09-16T21:29:08.862Z,2.00
2022-09-16T21:31:38.023Z,2.03
2022-09-16T21:34:07.045Z,2.03
2022-09-16T21:36:35.427Z,2.00
2022-09-16T21:39:02.235Z,2.73
2022-09-16T21:41:29.148Z,2.20
2022-09-16T21:43:57.471Z,2.27
2022-09-16T21:46:29.141Z,3.40
2022-09-16T21:49:02.344Z,2.83
2022-09-16T21:51:36.231Z,3.20
2022-09-16T21:54:04.566Z,2.80
2022-09-16T21:56:31.637Z,3.00
2022-09-16T21:58:59.174Z,2.70
2022-09-16T22:01:28.576Z,3.00
2022-09-16T22:03:58.170Z,2.80
2022-09-16T22:06:26.333Z,2.93
2022-09-16T22:08:58.830Z,3.23
2022-09-16T22:11:28.435Z,2.93
2022-09-16T22:13:56.656Z,3.13
2022-09-16T22:16:28.729Z,2.97
2022-09-16T22:18:55.534Z,3.03
2022-09-16T22:21:23.285Z,3.10
2022-09-16T22:23:50.519Z,2.80
2022-09-16T22:26:19.453Z,3.10
2022-09-16T22:28:46.387Z,2.77
2022-09-16T22:31:16.215Z,2.83
2022-09-16T22:33:44.595Z,3.13
2022-09-16T22:36:17.013Z,3.53
2022-09-16T22:38:48.113Z,3.43
2022-09-16T22:41:16.038Z,3.80
2022-09-16T22:43:45.180Z,3.73
2022-09-16T22:46:12.022Z,2.30
2022-09-16T22:48:40.085Z,3.10
2022-09-16T22:51:07.807Z,2.93
2022-09-16T22:53:34.969Z,2.60
2022-09-16T22:56:07.184Z,2.33
2022-09-16T22:58:34.241Z,2.73
2022-09-16T23:01:09.801Z,2.40
2022-09-16T23:03:36.730Z,2.53
2022-09-16T23:06:06.049Z,2.37
2022-09-16T23:08:36.022Z,2.60
2022-09-16T23:11:04.340Z,2.30
2022-09-16T23:13:36.041Z,2.80
2022-09-16T23:16:05.596Z,2.40
2022-09-16T23:18:34.670Z,2.23
2022-09-16T23:21:04.199Z,2.10
2022-09-16T23:23:32.251Z,2.17
2022-09-16T23:26:03.709Z,2.50
2022-09-16T23:28:31.013Z,2.40
2022-09-16T23:31:05.423Z,2.10
2022-09-16T23:33:33.004Z,2.17
2022-09-16T23:36:00.440Z,2.20
2022-09-16T23:38:27.725Z,1.90
2022-09-16T23:40:54.764Z,2.40
2022-09-16T23:43:21.756Z,2.53
2022-09-16T23:45:48.496Z,2.07
2022-09-16T23:48:15.219Z,2.43
2022-09-16T23:50:44.223Z,2.10
2022-09-16T23:53:11.305Z,2.40
2022-09-16T23:55:42.291Z,2.73
2022-09-16T23:58:09.412Z,2.60
